sensor_id;sensor_type;location;lat;lon;timestamp;P1;durP1;ratioP1;P2;durP2;ratioP2
37859;SDS011;23698;52.014;5.190;2024-03-22T00:00:13;50.42;;;27.67;;
37859;SDS011;23698;52.014;5.190;2024-03-22T00:02:58;52.70;;;28.10;;
37859;SDS011;23698;52.014;5.190;2024-03-22T00:05:44;58.58;;;28.38;;
37859;SDS011;23698;52.014;5.190;2024-03-22T00:08:29;52.30;;;27.52;;
37859;SDS011;23698;52.014;5.190;2024-03-22T00:11:15;63.58;;;29.92;;
37859;SDS011;23698;52.014;5.190;2024-03-22T00:14:01;56.90;;;29.25;;
37859;SDS011;23698;52.014;5.190;2024-03-22T00:16:46;60.03;;;30.50;;
37859;SDS011;23698;52.014;5.190;2024-03-22T00:19:31;57.33;;;31.00;;
37859;SDS011;23698;52.014;5.190;2024-03-22T00:22:16;59.58;;;28.70;;
37859;SDS011;23698;52.014;5.190;2024-03-22T00:25:01;63.00;;;31.55;;
37859;SDS011;23698;52.014;5.190;2024-03-22T00:27:46;56.78;;;29.80;;
37859;SDS011;23698;52.014;5.190;2024-03-22T00:30:32;60.97;;;30.52;;
37859;SDS011;23698;52.014;5.190;2024-03-22T00:33:18;61.85;;;31.58;;
37859;SDS011;23698;52.014;5.190;2024-03-22T00:36:03;62.38;;;30.67;;
37859;SDS011;23698;52.014;5.190;2024-03-22T00:38:48;64.25;;;31.95;;
37859;SDS011;23698;52.014;5.190;2024-03-22T00:41:33;63.17;;;32.65;;
37859;SDS011;23698;52.014;5.190;2024-03-22T00:44:19;66.82;;;31.77;;
37859;SDS011;23698;52.014;5.190;2024-03-22T00:47:05;71.95;;;34.28;;
37859;SDS011;23698;52.014;5.190;2024-03-22T00:49:50;71.40;;;32.60;;
37859;SDS011;23698;52.014;5.190;2024-03-22T00:52:35;74.18;;;34.17;;
37859;SDS011;23698;52.014;5.190;2024-03-22T00:55:20;68.60;;;32.28;;
37859;SDS011;23698;52.014;5.190;2024-03-22T00:58:05;65.93;;;31.35;;
37859;SDS011;23698;52.014;5.190;2024-03-22T01:00:51;64.68;;;33.53;;
37859;SDS011;23698;52.014;5.190;2024-03-22T01:03:37;68.38;;;33.55;;
37859;SDS011;23698;52.014;5.190;2024-03-22T01:06:23;70.15;;;33.15;;
37859;SDS011;23698;52.014;5.190;2024-03-22T01:09:09;75.38;;;34.40;;
37859;SDS011;23698;52.014;5.190;2024-03-22T01:11:54;74.38;;;35.60;;
37859;SDS011;23698;52.014;5.190;2024-03-22T01:14:39;71.72;;;33.53;;
37859;SDS011;23698;52.014;5.190;2024-03-22T01:17:25;77.63;;;35.10;;
37859;SDS011;23698;52.014;5.190;2024-03-22T01:20:11;73.68;;;35.42;;
37859;SDS011;23698;52.014;5.190;2024-03-22T01:22:59;68.82;;;35.08;;
37859;SDS011;23698;52.014;5.190;2024-03-22T01:25:44;73.35;;;34.72;;
37859;SDS011;23698;52.014;5.190;2024-03-22T01:28:30;72.47;;;33.33;;
37859;SDS011;23698;52.014;5.190;2024-03-22T01:31:14;68.05;;;34.60;;
37859;SDS011;23698;52.014;5.190;2024-03-22T01:34:00;70.88;;;35.35;;
37859;SDS011;23698;52.014;5.190;2024-03-22T01:36:46;68.85;;;34.53;;
37859;SDS011;23698;52.014;5.190;2024-03-22T01:39:32;72.95;;;34.75;;
37859;SDS011;23698;52.014;5.190;2024-03-22T01:42:16;72.10;;;34.83;;
37859;SDS011;23698;52.014;5.190;2024-03-22T01:45:02;66.72;;;31.88;;
37859;SDS011;23698;52.014;5.190;2024-03-22T01:47:47;66.88;;;32.90;;
37859;SDS011;23698;52.014;5.190;2024-03-22T01:50:33;71.75;;;33.70;;
37859;SDS011;23698;52.014;5.190;2024-03-22T01:53:19;68.18;;;33.72;;
37859;SDS011;23698;52.014;5.190;2024-03-22T01:56:06;65.10;;;32.65;;
37859;SDS011;23698;52.014;5.190;2024-03-22T01:58:51;61.65;;;32.85;;
37859;SDS011;23698;52.014;5.190;2024-03-22T02:01:37;71.38;;;33.40;;
37859;SDS011;23698;52.014;5.190;2024-03-22T02:04:21;67.18;;;33.40;;
37859;SDS011;23698;52.014;5.190;2024-03-22T02:07:07;67.40;;;32.45;;
37859;SDS011;23698;52.014;5.190;2024-03-22T02:09:53;65.70;;;32.42;;
37859;SDS011;23698;52.014;5.190;2024-03-22T02:12:39;67.45;;;31.75;;
37859;SDS011;23698;52.014;5.190;2024-03-22T02:15:24;69.97;;;31.77;;
37859;SDS011;23698;52.014;5.190;2024-03-22T02:18:10;64.10;;;31.70;;
37859;SDS011;23698;52.014;5.190;2024-03-22T02:20:56;68.45;;;32.60;;
37859;SDS011;23698;52.014;5.190;2024-03-22T02:23:43;59.97;;;28.42;;
37859;SDS011;23698;52.014;5.190;2024-03-22T02:26:27;62.28;;;31.23;;
37859;SDS011;23698;52.014;5.190;2024-03-22T02:29:13;64.13;;;30.55;;
37859;SDS011;23698;52.014;5.190;2024-03-22T02:31:58;66.15;;;34.17;;
37859;SDS011;23698;52.014;5.190;2024-03-22T02:34:43;63.17;;;31.48;;
37859;SDS011;23698;52.014;5.190;2024-03-22T02:37:28;78.82;;;36.75;;
37859;SDS011;23698;52.014;5.190;2024-03-22T02:40:15;72.95;;;33.95;;
37859;SDS011;23698;52.014;5.190;2024-03-22T02:42:59;65.38;;;34.03;;
37859;SDS011;23698;52.014;5.190;2024-03-22T02:45:45;73.03;;;34.08;;
37859;SDS011;23698;52.014;5.190;2024-03-22T02:48:30;63.50;;;30.33;;
37859;SDS011;23698;52.014;5.190;2024-03-22T02:51:16;68.97;;;34.13;;
37859;SDS011;23698;52.014;5.190;2024-03-22T02:54:01;71.43;;;33.25;;
37859;SDS011;23698;52.014;5.190;2024-03-22T02:56:48;71.90;;;32.88;;
37859;SDS011;23698;52.014;5.190;2024-03-22T02:59:32;70.00;;;32.70;;
37859;SDS011;23698;52.014;5.190;2024-03-22T03:02:18;76.45;;;34.22;;
37859;SDS011;23698;52.014;5.190;2024-03-22T03:05:03;76.70;;;34.95;;
37859;SDS011;23698;52.014;5.190;2024-03-22T03:07:50;69.93;;;31.80;;
37859;SDS011;23698;52.014;5.190;2024-03-22T03:10:34;80.03;;;33.58;;
37859;SDS011;23698;52.014;5.190;2024-03-22T03:13:21;71.25;;;31.92;;
37859;SDS011;23698;52.014;5.190;2024-03-22T03:16:06;70.30;;;34.05;;
37859;SDS011;23698;52.014;5.190;2024-03-22T03:18:51;78.72;;;32.13;;
37859;SDS011;23698;52.014;5.190;2024-03-22T03:21:36;80.70;;;34.20;;
37859;SDS011;23698;52.014;5.190;2024-03-22T03:24:21;76.18;;;35.22;;
37859;SDS011;23698;52.014;5.190;2024-03-22T03:27:06;72.10;;;31.05;;
37859;SDS011;23698;52.014;5.190;2024-03-22T03:29:53;69.47;;;32.65;;
37859;SDS011;23698;52.014;5.190;2024-03-22T03:32:37;70.75;;;32.47;;
37859;SDS011;23698;52.014;5.190;2024-03-22T03:35:23;77.25;;;31.73;;
37859;SDS011;23698;52.014;5.190;2024-03-22T03:38:07;73.28;;;31.85;;
37859;SDS011;23698;52.014;5.190;2024-03-22T03:40:53;76.85;;;32.75;;
37859;SDS011;23698;52.014;5.190;2024-03-22T03:43:37;73.50;;;32.97;;
37859;SDS011;23698;52.014;5.190;2024-03-22T03:46:24;74.93;;;32.70;;
37859;SDS011;23698;52.014;5.190;2024-03-22T03:49:09;74.05;;;34.13;;
37859;SDS011;23698;52.014;5.190;2024-03-22T03:51:54;74.57;;;33.30;;
37859;SDS011;23698;52.014;5.190;2024-03-22T03:54:39;72.45;;;32.65;;
37859;SDS011;23698;52.014;5.190;2024-03-22T03:57:25;68.28;;;31.50;;
37859;SDS011;23698;52.014;5.190;2024-03-22T04:00:10;87.78;;;34.20;;
37859;SDS011;23698;52.014;5.190;2024-03-22T04:02:57;75.78;;;33.10;;
37859;SDS011;23698;52.014;5.190;2024-03-22T04:05:42;85.18;;;35.60;;
37859;SDS011;23698;52.014;5.190;2024-03-22T04:08:27;78.20;;;36.30;;
37859;SDS011;23698;52.014;5.190;2024-03-22T04:11:15;79.88;;;36.15;;
37859;SDS011;23698;52.014;5.190;2024-03-22T04:14:01;78.32;;;35.38;;
37859;SDS011;23698;52.014;5.190;2024-03-22T04:16:46;87.20;;;37.17;;
37859;SDS011;23698;52.014;5.190;2024-03-22T04:19:33;82.20;;;36.08;;
37859;SDS011;23698;52.014;5.190;2024-03-22T04:22:18;85.70;;;35.55;;
37859;SDS011;23698;52.014;5.190;2024-03-22T04:25:06;78.38;;;35.72;;
37859;SDS011;23698;52.014;5.190;2024-03-22T04:27:52;78.90;;;34.45;;
37859;SDS011;23698;52.014;5.190;2024-03-22T04:30:37;76.22;;;35.03;;
37859;SDS011;23698;52.014;5.190;2024-03-22T04:33:23;78.50;;;33.15;;
37859;SDS011;23698;52.014;5.190;2024-03-22T04:36:08;78.22;;;36.13;;
37859;SDS011;23698;52.014;5.190;2024-03-22T04:38:54;75.43;;;33.20;;
37859;SDS011;23698;52.014;5.190;2024-03-22T04:41:40;81.13;;;36.75;;
37859;SDS011;23698;52.014;5.190;2024-03-22T04:44:25;76.32;;;34.95;;
37859;SDS011;23698;52.014;5.190;2024-03-22T04:47:11;78.45;;;32.72;;
37859;SDS011;23698;52.014;5.190;2024-03-22T04:49:56;70.78;;;34.28;;
37859;SDS011;23698;52.014;5.190;2024-03-22T04:52:42;73.50;;;33.70;;
37859;SDS011;23698;52.014;5.190;2024-03-22T04:55:28;72.43;;;33.78;;
37859;SDS011;23698;52.014;5.190;2024-03-22T04:58:13;69.35;;;32.88;;
37859;SDS011;23698;52.014;5.190;2024-03-22T05:00:59;65.97;;;31.70;;
37859;SDS011;23698;52.014;5.190;2024-03-22T05:03:45;67.70;;;32.53;;
37859;SDS011;23698;52.014;5.190;2024-03-22T05:06:30;68.82;;;34.10;;
37859;SDS011;23698;52.014;5.190;2024-03-22T05:09:17;69.93;;;33.97;;
37859;SDS011;23698;52.014;5.190;2024-03-22T05:12:01;67.00;;;33.05;;
37859;SDS011;23698;52.014;5.190;2024-03-22T05:14:47;68.47;;;34.08;;
37859;SDS011;23698;52.014;5.190;2024-03-22T05:17:32;66.13;;;31.42;;
37859;SDS011;23698;52.014;5.190;2024-03-22T05:20:17;63.97;;;32.53;;
37859;SDS011;23698;52.014;5.190;2024-03-22T05:23:03;73.18;;;33.40;;
37859;SDS011;23698;52.014;5.190;2024-03-22T05:25:50;66.35;;;32.35;;
37859;SDS011;23698;52.014;5.190;2024-03-22T05:28:34;69.60;;;32.53;;
37859;SDS011;23698;52.014;5.190;2024-03-22T05:31:20;63.58;;;30.15;;
37859;SDS011;23698;52.014;5.190;2024-03-22T05:34:05;60.97;;;30.40;;
37859;SDS011;23698;52.014;5.190;2024-03-22T05:36:50;65.53;;;31.08;;
37859;SDS011;23698;52.014;5.190;2024-03-22T05:39:36;64.50;;;30.80;;
37859;SDS011;23698;52.014;5.190;2024-03-22T05:42:22;68.05;;;29.95;;
37859;SDS011;23698;52.014;5.190;2024-03-22T05:45:07;62.53;;;30.58;;
37859;SDS011;23698;52.014;5.190;2024-03-22T05:47:53;62.72;;;29.88;;
37859;SDS011;23698;52.014;5.190;2024-03-22T05:50:38;58.40;;;27.63;;
37859;SDS011;23698;52.014;5.190;2024-03-22T05:53:24;61.40;;;29.20;;
37859;SDS011;23698;52.014;5.190;2024-03-22T05:56:10;61.20;;;27.13;;
37859;SDS011;23698;52.014;5.190;2024-03-22T05:58:56;55.28;;;27.48;;
37859;SDS011;23698;52.014;5.190;2024-03-22T06:01:42;56.58;;;26.80;;
37859;SDS011;23698;52.014;5.190;2024-03-22T06:04:26;58.50;;;27.50;;
37859;SDS011;23698;52.014;5.190;2024-03-22T06:07:13;62.67;;;27.08;;
37859;SDS011;23698;52.014;5.190;2024-03-22T06:09:58;51.97;;;26.55;;
37859;SDS011;23698;52.014;5.190;2024-03-22T06:12:44;58.25;;;25.02;;
37859;SDS011;23698;52.014;5.190;2024-03-22T06:15:32;52.90;;;24.67;;
37859;SDS011;23698;52.014;5.190;2024-03-22T06:18:18;51.60;;;26.45;;
37859;SDS011;23698;52.014;5.190;2024-03-22T06:21:02;52.75;;;24.67;;
37859;SDS011;23698;52.014;5.190;2024-03-22T06:23:49;47.83;;;23.30;;
37859;SDS011;23698;52.014;5.190;2024-03-22T06:26:34;48.97;;;24.55;;
37859;SDS011;23698;52.014;5.190;2024-03-22T06:29:19;50.13;;;23.35;;
37859;SDS011;23698;52.014;5.190;2024-03-22T06:32:06;51.45;;;24.33;;
37859;SDS011;23698;52.014;5.190;2024-03-22T06:34:52;52.90;;;25.20;;
37859;SDS011;23698;52.014;5.190;2024-03-22T06:37:38;55.17;;;25.60;;
37859;SDS011;23698;52.014;5.190;2024-03-22T06:40:22;50.50;;;22.73;;
37859;SDS011;23698;52.014;5.190;2024-03-22T06:43:08;51.25;;;23.70;;
37859;SDS011;23698;52.014;5.190;2024-03-22T06:45:53;47.28;;;24.40;;
37859;SDS011;23698;52.014;5.190;2024-03-22T06:48:39;46.50;;;22.67;;
37859;SDS011;23698;52.014;5.190;2024-03-22T06:51:24;47.20;;;23.73;;
37859;SDS011;23698;52.014;5.190;2024-03-22T06:54:09;53.00;;;23.77;;
37859;SDS011;23698;52.014;5.190;2024-03-22T06:56:54;48.65;;;23.15;;
37859;SDS011;23698;52.014;5.190;2024-03-22T06:59:39;48.28;;;24.60;;
37859;SDS011;23698;52.014;5.190;2024-03-22T07:02:24;49.88;;;24.30;;
37859;SDS011;23698;52.014;5.190;2024-03-22T07:05:12;49.70;;;22.88;;
37859;SDS011;23698;52.014;5.190;2024-03-22T07:07:56;51.95;;;22.75;;
37859;SDS011;23698;52.014;5.190;2024-03-22T07:10:42;49.63;;;25.42;;
37859;SDS011;23698;52.014;5.190;2024-03-22T07:13:26;48.85;;;23.52;;
37859;SDS011;23698;52.014;5.190;2024-03-22T07:16:12;50.55;;;23.98;;
37859;SDS011;23698;52.014;5.190;2024-03-22T07:18:59;49.95;;;24.17;;
37859;SDS011;23698;52.014;5.190;2024-03-22T07:21:46;51.28;;;25.73;;
37859;SDS011;23698;52.014;5.190;2024-03-22T07:24:31;47.72;;;24.30;;
37859;SDS011;23698;52.014;5.190;2024-03-22T07:27:17;52.80;;;25.88;;
37859;SDS011;23698;52.014;5.190;2024-03-22T07:30:01;48.42;;;25.10;;
37859;SDS011;23698;52.014;5.190;2024-03-22T07:32:47;59.30;;;26.65;;
37859;SDS011;23698;52.014;5.190;2024-03-22T07:35:32;53.90;;;25.02;;
37859;SDS011;23698;52.014;5.190;2024-03-22T07:38:21;50.67;;;24.50;;
37859;SDS011;23698;52.014;5.190;2024-03-22T07:41:05;58.25;;;26.13;;
37859;SDS011;23698;52.014;5.190;2024-03-22T07:43:51;53.13;;;25.63;;
37859;SDS011;23698;52.014;5.190;2024-03-22T07:46:35;54.20;;;23.88;;
37859;SDS011;23698;52.014;5.190;2024-03-22T07:49:21;46.85;;;23.65;;
37859;SDS011;23698;52.014;5.190;2024-03-22T07:52:07;49.15;;;25.15;;
37859;SDS011;23698;52.014;5.190;2024-03-22T07:54:52;57.38;;;24.95;;
37859;SDS011;23698;52.014;5.190;2024-03-22T07:57:38;55.83;;;24.73;;
37859;SDS011;23698;52.014;5.190;2024-03-22T08:00:23;57.60;;;25.83;;
37859;SDS011;23698;52.014;5.190;2024-03-22T08:03:09;49.50;;;25.70;;
37859;SDS011;23698;52.014;5.190;2024-03-22T08:05:59;51.72;;;25.05;;
37859;SDS011;23698;52.014;5.190;2024-03-22T08:08:44;57.80;;;26.13;;
37859;SDS011;23698;52.014;5.190;2024-03-22T08:11:31;51.22;;;26.10;;
37859;SDS011;23698;52.014;5.190;2024-03-22T08:14:15;58.72;;;25.05;;
37859;SDS011;23698;52.014;5.190;2024-03-22T08:17:01;53.67;;;25.98;;
37859;SDS011;23698;52.014;5.190;2024-03-22T08:19:45;55.85;;;25.42;;
37859;SDS011;23698;52.014;5.190;2024-03-22T08:22:31;52.58;;;24.65;;
37859;SDS011;23698;52.014;5.190;2024-03-22T08:25:15;50.22;;;23.50;;
37859;SDS011;23698;52.014;5.190;2024-03-22T08:28:05;56.45;;;23.85;;
37859;SDS011;23698;52.014;5.190;2024-03-22T08:30:49;44.13;;;23.50;;
37859;SDS011;23698;52.014;5.190;2024-03-22T08:33:35;56.35;;;23.80;;
37859;SDS011;23698;52.014;5.190;2024-03-22T08:36:19;47.67;;;23.40;;
37859;SDS011;23698;52.014;5.190;2024-03-22T08:39:05;46.67;;;23.50;;
37859;SDS011;23698;52.014;5.190;2024-03-22T08:41:51;54.92;;;24.33;;
37859;SDS011;23698;52.014;5.190;2024-03-22T08:44:38;57.75;;;23.63;;
37859;SDS011;23698;52.014;5.190;2024-03-22T08:47:23;49.60;;;23.67;;
37859;SDS011;23698;52.014;5.190;2024-03-22T08:50:09;57.33;;;22.27;;
37859;SDS011;23698;52.014;5.190;2024-03-22T08:52:54;57.80;;;24.55;;
37859;SDS011;23698;52.014;5.190;2024-03-22T08:55:44;58.88;;;25.67;;
37859;SDS011;23698;52.014;5.190;2024-03-22T08:58:30;55.75;;;24.02;;
37859;SDS011;23698;52.014;5.190;2024-03-22T09:01:16;54.92;;;24.00;;
37859;SDS011;23698;52.014;5.190;2024-03-22T09:04:02;53.47;;;24.45;;
37859;SDS011;23698;52.014;5.190;2024-03-22T09:06:47;57.20;;;23.88;;
37859;SDS011;23698;52.014;5.190;2024-03-22T09:09:33;56.75;;;24.05;;
37859;SDS011;23698;52.014;5.190;2024-03-22T09:12:18;60.20;;;26.48;;
37859;SDS011;23698;52.014;5.190;2024-03-22T09:15:04;55.45;;;24.73;;
37859;SDS011;23698;52.014;5.190;2024-03-22T09:17:52;52.08;;;23.60;;
37859;SDS011;23698;52.014;5.190;2024-03-22T09:20:38;44.72;;;21.80;;
37859;SDS011;23698;52.014;5.190;2024-03-22T09:23:23;40.50;;;22.35;;
37859;SDS011;23698;52.014;5.190;2024-03-22T09:26:08;53.72;;;22.63;;
37859;SDS011;23698;52.014;5.190;2024-03-22T09:28:53;50.97;;;21.40;;
37859;SDS011;23698;52.014;5.190;2024-03-22T09:31:39;44.15;;;20.80;;
37859;SDS011;23698;52.014;5.190;2024-03-22T09:34:25;41.08;;;19.92;;
37859;SDS011;23698;52.014;5.190;2024-03-22T09:37:10;53.88;;;21.92;;
37859;SDS011;23698;52.014;5.190;2024-03-22T09:39:55;47.25;;;20.33;;
37859;SDS011;23698;52.014;5.190;2024-03-22T09:42:41;46.00;;;22.48;;
37859;SDS011;23698;52.014;5.190;2024-03-22T09:45:27;55.28;;;30.45;;
37859;SDS011;23698;52.014;5.190;2024-03-22T09:48:12;58.28;;;37.25;;
37859;SDS011;23698;52.014;5.190;2024-03-22T09:50:59;65.85;;;38.65;;
37859;SDS011;23698;52.014;5.190;2024-03-22T09:53:46;58.83;;;33.88;;
37859;SDS011;23698;52.014;5.190;2024-03-22T09:56:33;60.10;;;30.98;;
37859;SDS011;23698;52.014;5.190;2024-03-22T09:59:19;49.22;;;27.13;;
37859;SDS011;23698;52.014;5.190;2024-03-22T10:02:06;48.55;;;21.85;;
37859;SDS011;23698;52.014;5.190;2024-03-22T10:04:52;39.83;;;20.17;;
37859;SDS011;23698;52.014;5.190;2024-03-22T10:07:39;45.38;;;21.58;;
37859;SDS011;23698;52.014;5.190;2024-03-22T10:10:24;40.85;;;18.75;;
37859;SDS011;23698;52.014;5.190;2024-03-22T10:13:10;45.58;;;19.08;;
37859;SDS011;23698;52.014;5.190;2024-03-22T10:15:56;36.63;;;17.55;;
37859;SDS011;23698;52.014;5.190;2024-03-22T10:18:42;40.92;;;17.60;;
37859;SDS011;23698;52.014;5.190;2024-03-22T10:21:27;41.25;;;17.13;;
37859;SDS011;23698;52.014;5.190;2024-03-22T10:24:14;36.78;;;16.67;;
37859;SDS011;23698;52.014;5.190;2024-03-22T10:26:59;39.65;;;16.92;;
37859;SDS011;23698;52.014;5.190;2024-03-22T10:29:45;31.48;;;16.95;;
37859;SDS011;23698;52.014;5.190;2024-03-22T10:32:31;33.58;;;17.27;;
37859;SDS011;23698;52.014;5.190;2024-03-22T10:35:17;36.78;;;17.58;;
37859;SDS011;23698;52.014;5.190;2024-03-22T10:38:03;40.10;;;18.05;;
37859;SDS011;23698;52.014;5.190;2024-03-22T10:40:50;40.67;;;17.80;;
37859;SDS011;23698;52.014;5.190;2024-03-22T10:43:35;35.63;;;17.15;;
37859;SDS011;23698;52.014;5.190;2024-03-22T10:46:20;35.83;;;16.73;;
37859;SDS011;23698;52.014;5.190;2024-03-22T10:49:06;33.95;;;17.95;;
37859;SDS011;23698;52.014;5.190;2024-03-22T10:51:52;37.25;;;18.85;;
37859;SDS011;23698;52.014;5.190;2024-03-22T10:57:31;36.70;;;19.08;;
37859;SDS011;23698;52.014;5.190;2024-03-22T11:00:26;41.67;;;20.75;;
37859;SDS011;23698;52.014;5.190;2024-03-22T11:03:14;46.75;;;21.50;;
37859;SDS011;23698;52.014;5.190;2024-03-22T11:05:59;43.40;;;22.85;;
37859;SDS011;23698;52.014;5.190;2024-03-22T11:08:49;41.13;;;21.02;;
37859;SDS011;23698;52.014;5.190;2024-03-22T11:11:35;40.80;;;19.90;;
37859;SDS011;23698;52.014;5.190;2024-03-22T11:14:23;41.58;;;21.67;;
37859;SDS011;23698;52.014;5.190;2024-03-22T11:17:08;41.42;;;19.60;;
37859;SDS011;23698;52.014;5.190;2024-03-22T11:19:55;40.67;;;19.13;;
37859;SDS011;23698;52.014;5.190;2024-03-22T11:22:39;34.20;;;18.38;;
37859;SDS011;23698;52.014;5.190;2024-03-22T11:25:25;31.52;;;18.38;;
37859;SDS011;23698;52.014;5.190;2024-03-22T11:28:10;31.10;;;16.63;;
37859;SDS011;23698;52.014;5.190;2024-03-22T11:30:57;28.80;;;15.57;;
37859;SDS011;23698;52.014;5.190;2024-03-22T11:33:42;29.40;;;15.82;;
37859;SDS011;23698;52.014;5.190;2024-03-22T11:36:29;26.90;;;15.35;;
37859;SDS011;23698;52.014;5.190;2024-03-22T11:39:14;23.40;;;14.27;;
37859;SDS011;23698;52.014;5.190;2024-03-22T11:42:00;27.27;;;14.73;;
37859;SDS011;23698;52.014;5.190;2024-03-22T11:44:45;24.27;;;13.90;;
37859;SDS011;23698;52.014;5.190;2024-03-22T11:47:32;24.48;;;14.32;;
37859;SDS011;23698;52.014;5.190;2024-03-22T11:50:17;26.98;;;13.40;;
37859;SDS011;23698;52.014;5.190;2024-03-22T11:53:04;24.08;;;11.95;;
37859;SDS011;23698;52.014;5.190;2024-03-22T11:55:49;20.40;;;11.55;;
37859;SDS011;23698;52.014;5.190;2024-03-22T11:58:35;19.13;;;12.23;;
37859;SDS011;23698;52.014;5.190;2024-03-22T12:01:19;17.20;;;10.15;;
37859;SDS011;23698;52.014;5.190;2024-03-22T12:04:09;16.42;;;10.15;;
37859;SDS011;23698;52.014;5.190;2024-03-22T12:06:58;14.55;;;10.02;;
37859;SDS011;23698;52.014;5.190;2024-03-22T12:09:45;15.25;;;9.82;;
37859;SDS011;23698;52.014;5.190;2024-03-22T12:12:29;19.60;;;10.45;;
37859;SDS011;23698;52.014;5.190;2024-03-22T12:15:15;20.33;;;10.57;;
37859;SDS011;23698;52.014;5.190;2024-03-22T12:18:00;17.20;;;10.45;;
37859;SDS011;23698;52.014;5.190;2024-03-22T12:20:47;15.15;;;10.25;;
37859;SDS011;23698;52.014;5.190;2024-03-22T12:23:31;17.98;;;11.02;;
37859;SDS011;23698;52.014;5.190;2024-03-22T12:26:19;16.88;;;11.35;;
37859;SDS011;23698;52.014;5.190;2024-03-22T12:29:05;16.27;;;10.40;;
37859;SDS011;23698;52.014;5.190;2024-03-22T12:31:50;20.50;;;10.82;;
37859;SDS011;23698;52.014;5.190;2024-03-22T12:34:36;17.25;;;11.05;;
37859;SDS011;23698;52.014;5.190;2024-03-22T12:37:22;24.67;;;11.45;;
37859;SDS011;23698;52.014;5.190;2024-03-22T12:40:08;17.08;;;10.75;;
37859;SDS011;23698;52.014;5.190;2024-03-22T12:42:54;23.45;;;11.30;;
37859;SDS011;23698;52.014;5.190;2024-03-22T12:45:40;25.30;;;10.50;;
37859;SDS011;23698;52.014;5.190;2024-03-22T12:48:24;20.70;;;10.38;;
37859;SDS011;23698;52.014;5.190;2024-03-22T12:51:10;20.73;;;11.32;;
37859;SDS011;23698;52.014;5.190;2024-03-22T12:53:57;21.25;;;11.25;;
37859;SDS011;23698;52.014;5.190;2024-03-22T12:56:42;21.33;;;11.98;;
37859;SDS011;23698;52.014;5.190;2024-03-22T12:59:27;19.15;;;11.52;;
37859;SDS011;23698;52.014;5.190;2024-03-22T13:02:14;20.60;;;10.73;;
37859;SDS011;23698;52.014;5.190;2024-03-22T13:04:59;19.45;;;10.05;;
37859;SDS011;23698;52.014;5.190;2024-03-22T13:07:44;22.27;;;10.05;;
37859;SDS011;23698;52.014;5.190;2024-03-22T13:10:30;21.15;;;9.55;;
37859;SDS011;23698;52.014;5.190;2024-03-22T13:13:16;19.75;;;10.18;;
37859;SDS011;23698;52.014;5.190;2024-03-22T13:16:01;19.23;;;8.98;;
37859;SDS011;23698;52.014;5.190;2024-03-22T13:18:48;26.48;;;10.18;;
37859;SDS011;23698;52.014;5.190;2024-03-22T13:21:32;22.15;;;9.18;;
37859;SDS011;23698;52.014;5.190;2024-03-22T13:24:18;18.33;;;8.43;;
37859;SDS011;23698;52.014;5.190;2024-03-22T13:27:05;19.33;;;8.85;;
37859;SDS011;23698;52.014;5.190;2024-03-22T13:29:49;22.75;;;9.25;;
37859;SDS011;23698;52.014;5.190;2024-03-22T13:32:36;21.27;;;9.45;;
37859;SDS011;23698;52.014;5.190;2024-03-22T13:35:20;22.08;;;8.75;;
37859;SDS011;23698;52.014;5.190;2024-03-22T13:38:06;24.55;;;10.63;;
37859;SDS011;23698;52.014;5.190;2024-03-22T13:40:57;15.20;;;8.00;;
37859;SDS011;23698;52.014;5.190;2024-03-22T13:43:45;25.98;;;8.93;;
37859;SDS011;23698;52.014;5.190;2024-03-22T13:46:30;17.17;;;9.18;;
37859;SDS011;23698;52.014;5.190;2024-03-22T13:49:16;18.58;;;7.30;;
37859;SDS011;23698;52.014;5.190;2024-03-22T13:52:02;14.25;;;7.13;;
37859;SDS011;23698;52.014;5.190;2024-03-22T13:54:48;20.15;;;7.70;;
37859;SDS011;23698;52.014;5.190;2024-03-22T13:57:34;18.77;;;7.07;;
37859;SDS011;23698;52.014;5.190;2024-03-22T14:00:21;14.52;;;6.85;;
37859;SDS011;23698;52.014;5.190;2024-03-22T14:03:09;24.13;;;8.75;;
37859;SDS011;23698;52.014;5.190;2024-03-22T14:05:55;18.45;;;7.57;;
37859;SDS011;23698;52.014;5.190;2024-03-22T14:08:40;17.98;;;8.52;;
37859;SDS011;23698;52.014;5.190;2024-03-22T14:11:26;25.00;;;9.30;;
37859;SDS011;23698;52.014;5.190;2024-03-22T14:14:14;17.83;;;8.38;;
37859;SDS011;23698;52.014;5.190;2024-03-22T14:17:01;20.67;;;9.38;;
37859;SDS011;23698;52.014;5.190;2024-03-22T14:19:46;21.48;;;9.32;;
37859;SDS011;23698;52.014;5.190;2024-03-22T14:22:31;29.08;;;9.55;;
37859;SDS011;23698;52.014;5.190;2024-03-22T14:25:17;24.27;;;10.02;;
37859;SDS011;23698;52.014;5.190;2024-03-22T14:28:03;23.77;;;9.88;;
37859;SDS011;23698;52.014;5.190;2024-03-22T14:30:48;22.35;;;8.95;;
37859;SDS011;23698;52.014;5.190;2024-03-22T14:33:36;25.55;;;10.27;;
37859;SDS011;23698;52.014;5.190;2024-03-22T14:36:21;25.52;;;10.52;;
37859;SDS011;23698;52.014;5.190;2024-03-22T14:39:06;17.30;;;8.75;;
37859;SDS011;23698;52.014;5.190;2024-03-22T14:41:51;18.48;;;9.43;;
37859;SDS011;23698;52.014;5.190;2024-03-22T14:44:36;28.67;;;10.70;;
37859;SDS011;23698;52.014;5.190;2024-03-22T14:47:22;25.42;;;10.55;;
37859;SDS011;23698;52.014;5.190;2024-03-22T14:50:08;23.05;;;11.05;;
37859;SDS011;23698;52.014;5.190;2024-03-22T14:52:54;25.35;;;11.60;;
37859;SDS011;23698;52.014;5.190;2024-03-22T14:55:39;23.00;;;11.25;;
37859;SDS011;23698;52.014;5.190;2024-03-22T14:58:25;21.45;;;9.85;;
37859;SDS011;23698;52.014;5.190;2024-03-22T15:01:10;25.00;;;9.90;;
37859;SDS011;23698;52.014;5.190;2024-03-22T15:03:56;25.90;;;10.80;;
37859;SDS011;23698;52.014;5.190;2024-03-22T15:06:42;21.73;;;9.50;;
37859;SDS011;23698;52.014;5.190;2024-03-22T15:09:29;24.13;;;9.07;;
37859;SDS011;23698;52.014;5.190;2024-03-22T15:12:14;23.95;;;11.07;;
37859;SDS011;23698;52.014;5.190;2024-03-22T15:14:59;24.88;;;10.85;;
37859;SDS011;23698;52.014;5.190;2024-03-22T15:17:44;18.90;;;9.98;;
37859;SDS011;23698;52.014;5.190;2024-03-22T15:20:30;26.67;;;9.32;;
37859;SDS011;23698;52.014;5.190;2024-03-22T15:23:16;25.63;;;10.18;;
37859;SDS011;23698;52.014;5.190;2024-03-22T15:26:03;24.25;;;8.93;;
37859;SDS011;23698;52.014;5.190;2024-03-22T15:28:47;25.58;;;9.07;;
37859;SDS011;23698;52.014;5.190;2024-03-22T15:31:33;23.85;;;8.02;;
37859;SDS011;23698;52.014;5.190;2024-03-22T15:34:18;27.35;;;9.50;;
37859;SDS011;23698;52.014;5.190;2024-03-22T15:37:04;29.05;;;8.70;;
37859;SDS011;23698;52.014;5.190;2024-03-22T15:39:50;24.63;;;7.15;;
37859;SDS011;23698;52.014;5.190;2024-03-22T15:42:36;23.42;;;6.72;;
37859;SDS011;23698;52.014;5.190;2024-03-22T15:45:23;23.17;;;5.43;;
37859;SDS011;23698;52.014;5.190;2024-03-22T15:48:08;21.38;;;5.63;;
37859;SDS011;23698;52.014;5.190;2024-03-22T15:50:53;22.05;;;5.85;;
37859;SDS011;23698;52.014;5.190;2024-03-22T15:53:39;19.17;;;6.40;;
37859;SDS011;23698;52.014;5.190;2024-03-22T15:56:24;34.03;;;8.30;;
37859;SDS011;23698;52.014;5.190;2024-03-22T15:59:10;21.75;;;6.18;;
37859;SDS011;23698;52.014;5.190;2024-03-22T16:01:54;19.42;;;6.00;;
37859;SDS011;23698;52.014;5.190;2024-03-22T16:04:40;26.48;;;5.97;;
37859;SDS011;23698;52.014;5.190;2024-03-22T16:07:25;26.45;;;4.63;;
37859;SDS011;23698;52.014;5.190;2024-03-22T16:10:10;20.20;;;4.18;;
37859;SDS011;23698;52.014;5.190;2024-03-22T16:12:57;22.77;;;4.63;;